Time;durP1;ratioP1;P1;durP2;ratioP2;P2;SDS_P1;SDS_P2;PMS_P1;PMS_P2;Temp;Humidity;BMP_temperature;BMP_pressure;BME280_temperature;BME280_humidity;BME280_pressure;Samples;Min_cycle;Max_cycle;Signal;HPM_P1;HPM_P2
2022/01/07 00:01:06;;;;;;;3.88;2.10;;;;;;;25.83;31.80;96869.47;5004980;28;20041;-30
2022/01/07 00:03:32;;;;;;;2.90;1.80;;;;;;;25.82;31.91;96865.16;5000780;28;20745;-30
2022/01/07 00:05:59;;;;;;;2.85;1.65;;;;;;;25.83;31.87;96856.34;4997926;28;20030;-28
2022/01/07 00:08:24;;;;;;;2.83;2.03;;;;;;;25.83;31.87;96856.34;5003204;28;20431;-29
2022/01/07 00:10:50;;;;;;;5.20;2.22;;;;;;;25.83;32.00;96848.47;5003805;28;20025;-29
2022/01/07 00:13:15;;;;;;;3.72;1.77;;;;;;;25.83;32.11;96848.47;5002209;28;20929;-28
2022/01/07 00:15:41;;;;;;;3.17;2.00;;;;;;;25.83;32.04;96851.09;5001849;28;20462;-29
2022/01/07 00:18:07;;;;;;;3.47;1.90;;;;;;;25.83;31.79;96850.28;4999678;28;20729;-30
2022/01/07 00:20:32;;;;;;;2.92;2.10;;;;;;;25.82;31.85;96846.78;5003056;28;20038;-28
2022/01/07 00:22:57;;;;;;;3.78;2.00;;;;;;;25.82;31.91;96846.78;4999858;28;20380;-28
2022/01/07 00:25:24;;;;;;;5.45;2.00;;;;;;;25.82;31.88;96838.91;4998450;28;20467;-28
2022/01/07 00:27:50;;;;;;;5.38;2.03;;;;;;;25.82;31.86;96836.28;5009155;28;20401;-30
2022/01/07 00:30:15;;;;;;;3.20;2.28;;;;;;;25.81;31.63;96837.22;5006526;28;20101;-28
2022/01/07 00:32:41;;;;;;;3.08;2.10;;;;;;;25.81;31.71;96831.97;5003059;28;20041;-30
2022/01/07 00:35:07;;;;;;;3.65;1.80;;;;;;;25.81;31.77;96828.47;5004618;28;20112;-27
2022/01/07 00:37:32;;;;;;;2.78;1.70;;;;;;;25.81;31.79;96823.25;5002264;28;20084;-29
2022/01/07 00:39:58;;;;;;;2.42;1.83;;;;;;;25.80;31.85;96822.41;5000825;28;20037;-30
2022/01/07 00:42:23;;;;;;;6.95;2.03;;;;;;;25.79;31.87;96820.72;5005040;28;20022;-28
2022/01/07 00:44:49;;;;;;;2.53;1.80;;;;;;;25.79;31.89;96818.09;5007218;28;20037;-32
2022/01/07 00:47:16;;;;;;;2.90;1.80;;;;;;;25.79;31.75;96822.47;5005703;28;20436;-31
2022/01/07 00:49:42;;;;;;;3.22;1.90;;;;;;;25.78;31.76;96816.38;5005837;28;20095;-29
2022/01/07 00:52:08;;;;;;;3.60;2.22;;;;;;;25.78;31.87;96819.00;4990209;28;20039;-30
2022/01/07 00:54:33;;;;;;;3.35;1.83;;;;;;;25.78;31.68;96826.03;5002507;28;20045;-31
2022/01/07 00:56:58;;;;;;;3.60;1.85;;;;;;;25.77;31.68;96817.31;5001163;28;20025;-33
2022/01/07 00:59:24;;;;;;;4.22;2.00;;;;;;;25.78;31.61;96819.00;5005776;28;20030;-32
2022/01/07 01:01:49;;;;;;;2.67;1.73;;;;;;;25.77;31.73;96819.94;5005469;28;20030;-30
2022/01/07 01:04:15;;;;;;;4.47;1.80;;;;;;;25.77;31.96;96819.94;5004305;28;20034;-32
2022/01/07 01:06:41;;;;;;;2.20;1.73;;;;;;;25.76;31.72;96820.88;5009072;28;20021;-29
2022/01/07 01:09:09;;;;;;;3.33;1.60;;;;;;;25.76;31.66;96813.00;5012421;28;20030;-32
2022/01/07 01:11:35;;;;;;;2.90;1.73;;;;;;;25.77;31.73;96808.56;5003999;28;20586;-31
2022/01/07 01:14:01;;;;;;;3.58;2.05;;;;;;;25.76;31.61;96794.63;5005233;28;20040;-29
2022/01/07 01:16:26;;;;;;;2.60;1.50;;;;;;;25.76;31.59;96797.25;5003706;28;20107;-30
2022/01/07 01:18:51;;;;;;;3.90;1.92;;;;;;;25.75;31.70;96795.56;5004515;28;20107;-30
2022/01/07 01:21:17;;;;;;;2.30;1.70;;;;;;;25.75;31.68;96800.81;5005121;28;20114;-29
2022/01/07 01:23:45;;;;;;;2.95;1.80;;;;;;;25.75;31.61;96795.56;5005140;28;20033;-31
2022/01/07 01:26:12;;;;;;;2.75;1.73;;;;;;;25.75;31.62;96799.94;5003771;28;20033;-31
2022/01/07 01:28:37;;;;;;;3.20;1.60;;;;;;;25.75;31.73;96794.69;5006088;28;21041;-29
2022/01/07 01:31:02;;;;;;;2.95;1.85;;;;;;;25.74;31.72;96791.22;5005182;28;20034;-30
2022/01/07 01:33:28;;;;;;;2.97;1.73;;;;;;;25.74;31.58;96799.09;5005868;28;20033;-30
2022/01/07 01:35:53;;;;;;;3.65;1.88;;;;;;;25.74;31.61;96803.50;5005998;28;20025;-30
2022/01/07 01:38:18;;;;;;;2.47;1.58;;;;;;;25.72;31.52;96800.09;5006282;28;20025;-32
2022/01/07 01:40:44;;;;;;;2.47;1.83;;;;;;;25.73;31.63;96794.78;5005100;28;20419;-29
2022/01/07 01:43:09;;;;;;;2.40;1.63;;;;;;;25.72;31.36;96787.84;5004184;28;20022;-29
2022/01/07 01:45:35;;;;;;;1.92;1.50;;;;;;;25.71;31.50;96780.91;5005640;28;20041;-30
2022/01/07 01:48:00;;;;;;;2.03;1.50;;;;;;;25.71;31.48;96778.28;5006823;28;20033;-29
2022/01/07 01:50:26;;;;;;;3.03;1.70;;;;;;;25.70;31.54;96779.19;5005277;28;20028;-29
2022/01/07 01:52:53;;;;;;;2.38;1.80;;;;;;;25.70;31.58;96779.19;5004291;28;20703;-29
2022/01/07 01:55:19;;;;;;;2.65;1.73;;;;;;;25.70;31.53;96776.56;5001649;28;20025;-33
2022/01/07 01:57:44;;;;;;;2.60;1.63;;;;;;;25.70;31.64;96768.69;5002921;28;20578;-29
2022/01/07 02:00:10;;;;;;;4.22;1.55;;;;;;;25.70;31.50;96771.31;5005404;28;20053;-30
2022/01/07 02:02:36;;;;;;;2.47;1.58;;;;;;;25.67;31.29;96763.63;5003848;28;20038;-30
2022/01/07 02:05:02;;;;;;;2.10;1.55;;;;;;;25.68;31.46;96763.53;5004580;28;20091;-32
2022/01/07 02:07:27;;;;;;;3.42;1.60;;;;;;;25.68;31.50;96770.56;5004532;28;20580;-30
2022/01/07 02:09:53;;;;;;;2.88;1.67;;;;;;;25.67;31.52;96771.50;5001239;28;20033;-30
2022/01/07 02:12:18;;;;;;;2.42;1.83;;;;;;;25.67;31.53;96764.44;5003555;28;20040;-32
2022/01/07 02:14:51;;;;;;;2.72;1.52;;;;;;;25.66;31.56;96770.63;5004503;28;21117;-30
2022/01/07 02:17:17;;;;;;;6.18;1.73;;;;;;;25.67;31.56;96761.00;5002718;28;20490;-30
2022/01/07 02:19:42;;;;;;;3.50;1.50;;;;;;;25.67;31.66;96758.38;5005193;28;20029;-31
2022/01/07 02:22:07;;;;;;;2.22;1.50;;;;;;;25.65;31.53;96757.59;5004150;28;20037;-33
2022/01/07 02:24:35;;;;;;;5.20;1.80;;;;;;;25.67;31.57;96761.00;5007427;28;20534;-35
2022/01/07 02:27:00;;;;;;;3.05;1.60;;;;;;;25.64;31.56;96751.50;5006022;28;20688;-30
2022/01/07 02:29:26;;;;;;;2.15;1.50;;;;;;;25.65;31.48;96747.09;5004236;28;20035;-31
2022/01/07 02:31:51;;;;;;;2.33;1.50;;;;;;;25.64;31.55;96745.41;5004936;28;20037;-29
2022/01/07 02:34:17;;;;;;;2.22;1.38;;;;;;;25.63;31.63;96747.16;5007258;28;20043;-29
2022/01/07 02:36:42;;;;;;;2.05;1.52;;;;;;;25.64;31.44;96755.91;5004988;28;20033;-31
2022/01/07 02:39:08;;;;;;;2.80;1.60;;;;;;;25.63;31.60;96739.28;5003018;28;20580;-30
2022/01/07 02:41:33;;;;;;;2.33;1.67;;;;;;;25.63;31.48;96738.47;5008278;28;20044;-31
2022/01/07 02:43:58;;;;;;;2.25;1.33;;;;;;;25.62;31.60;96726.28;5003575;28;20068;-29
2022/01/07 02:46:24;;;;;;;1.80;1.35;;;;;;;25.63;31.57;96739.28;5000903;28;20017;-30
2022/01/07 02:48:49;;;;;;;1.58;1.33;;;;;;;25.62;31.50;96737.59;5003479;28;22229;-31
2022/01/07 02:51:14;;;;;;;2.40;1.42;;;;;;;25.62;31.56;96734.97;5005333;28;20033;-31
2022/01/07 02:53:40;;;;;;;1.63;1.30;;;;;;;25.62;31.57;96736.78;5003154;28;20324;-28
2022/01/07 02:56:05;;;;;;;2.47;1.40;;;;;;;25.61;31.68;96741.16;5001827;28;20033;-30
2022/01/07 02:58:31;;;;;;;2.25;1.40;;;;;;;25.61;31.54;96741.16;5002850;28;20025;-31
2022/01/07 03:00:56;;;;;;;2.88;1.30;;;;;;;25.62;31.68;96747.28;5004275;28;20076;-29
2022/01/07 03:03:22;;;;;;;1.30;1.13;;;;;;;25.61;31.51;96745.56;5004963;28;20025;-29
2022/01/07 03:05:47;;;;;;;3.47;1.02;;;;;;;25.60;31.58;96742.09;5003266;28;20041;-31
2022/01/07 03:08:12;;;;;;;1.63;1.33;;;;;;;25.60;31.55;96749.13;5008145;28;20030;-30
2022/01/07 03:10:38;;;;;;;1.75;1.20;;;;;;;25.60;31.63;96743.88;5005632;28;20084;-30
2022/01/07 03:13:04;;;;;;;2.22;1.40;;;;;;;25.59;31.63;96743.00;5001795;28;20044;-30
2022/01/07 03:15:30;;;;;;;1.88;1.50;;;;;;;25.59;31.50;96748.25;5006152;28;20030;-32
2022/01/07 03:17:55;;;;;;;2.50;1.55;;;;;;;25.59;31.46;96744.81;5002966;28;20080;-30
2022/01/07 03:20:21;;;;;;;1.75;1.25;;;;;;;25.59;31.61;96747.44;5002084;28;20030;-33
2022/01/07 03:22:46;;;;;;;1.95;1.30;;;;;;;25.59;31.53;96742.19;5002254;28;20060;-32
2022/01/07 03:25:12;;;;;;;2.17;1.10;;;;;;;25.58;31.63;96741.31;5003862;28;20045;-30
2022/01/07 03:27:37;;;;;;;3.72;1.13;;;;;;;25.57;31.64;96745.75;5006616;28;20033;-30
2022/01/07 03:30:04;;;;;;;1.45;1.08;;;;;;;25.57;31.67;96744.88;5004915;28;20030;-30
2022/01/07 03:32:29;;;;;;;2.85;1.38;;;;;;;25.57;31.52;96740.50;5006573;28;20030;-32
2022/01/07 03:34:55;;;;;;;2.28;1.20;;;;;;;25.56;31.46;96733.53;5010209;28;20604;-29
2022/01/07 03:37:20;;;;;;;2.33;1.17;;;;;;;25.56;31.49;96733.53;5011440;28;20045;-30
2022/01/07 03:39:46;;;;;;;1.35;1.20;;;;;;;25.55;31.61;96726.56;5006446;28;20034;-29
2022/01/07 03:42:11;;;;;;;2.10;1.08;;;;;;;25.55;31.58;96731.81;5010995;28;20652;-30
2022/01/07 03:44:36;;;;;;;2.53;1.40;;;;;;;25.55;31.58;96739.69;5007009;28;20042;-32
2022/01/07 03:47:02;;;;;;;1.35;1.08;;;;;;;25.55;31.40;96738.84;5008909;28;20846;-34
2022/01/07 03:49:28;;;;;;;5.30;1.20;;;;;;;25.54;31.51;96734.50;5005916;28;20901;-30
2022/01/07 03:51:53;;;;;;;1.20;1.05;;;;;;;25.54;31.54;96735.38;5020104;28;20026;-31
2022/01/07 03:54:18;;;;;;;1.75;1.10;;;;;;;25.53;31.46;96733.69;5005499;28;20897;-29
2022/01/07 03:56:44;;;;;;;1.65;1.02;;;;;;;25.55;31.63;96736.22;5004176;28;20038;-30
2022/01/07 03:59:09;;;;;;;1.50;1.23;;;;;;;25.54;31.62;96737.13;5005205;28;20089;-32
2022/01/07 04:01:35;;;;;;;1.58;1.15;;;;;;;25.53;31.45;96738.06;5009196;28;20745;-31
2022/01/07 04:04:00;;;;;;;1.48;1.13;;;;;;;25.53;31.56;96738.06;5008130;28;20036;-32
2022/01/07 04:06:25;;;;;;;1.10;1.00;;;;;;;25.52;31.37;96737.22;5007493;28;20189;-30
2022/01/07 04:08:51;;;;;;;1.17;1.00;;;;;;;25.52;31.48;96731.97;5007241;28;20034;-30
2022/01/07 04:11:16;;;;;;;1.00;0.82;;;;;;;25.52;31.42;96733.75;5008023;28;20072;-29
2022/01/07 04:13:42;;;;;;;6.10;1.88;;;;;;;25.52;31.23;96731.97;5023008;28;20076;-31
2022/01/07 04:16:07;;;;;;;5.90;1.85;;;;;;;25.50;31.42;96735.59;5008997;28;20487;-29
2022/01/07 04:18:33;;;;;;;2.70;1.33;;;;;;;25.49;31.34;96732.13;5011289;28;20032;-28
2022/01/07 04:20:58;;;;;;;1.80;1.15;;;;;;;25.48;31.44;96734.84;5010760;28;20977;-30
2022/01/07 04:23:23;;;;;;;3.83;1.30;;;;;;;25.47;31.37;96736.59;5011801;28;20539;-30
2022/01/07 04:25:49;;;;;;;1.92;1.30;;;;;;;25.47;31.54;96739.22;5014589;28;20025;-29
2022/01/07 04:28:14;;;;;;;1.75;1.13;;;;;;;25.47;31.46;96739.22;5013988;28;20041;-29
2022/01/07 04:30:41;;;;;;;2.35;1.00;;;;;;;25.46;31.46;96742.78;5014140;28;20028;-28
2022/01/07 04:33:07;;;;;;;1.88;1.17;;;;;;;25.47;31.42;96749.72;5014420;28;20030;-29
2022/01/07 04:35:33;;;;;;;5.32;1.30;;;;;;;25.45;31.53;96747.19;5013575;28;20663;-30
2022/01/07 04:37:59;;;;;;;2.15;1.10;;;;;;;25.46;31.49;96748.03;5017302;28;20041;-32
2022/01/07 04:40:24;;;;;;;1.98;1.08;;;;;;;25.46;31.54;96742.78;5011465;28;20037;-28
2022/01/07 04:42:50;;;;;;;1.88;1.08;;;;;;;25.46;31.53;96742.78;5014294;28;20029;-30
2022/01/07 04:45:15;;;;;;;0.95;0.73;;;;;;;25.46;31.45;96748.03;5015812;28;20029;-29
2022/01/07 04:47:41;;;;;;;2.58;1.20;;;;;;;25.45;31.44;96752.44;5015839;28;20411;-31
2022/01/07 04:50:11;;;;;;;1.75;1.02;;;;;;;25.45;31.37;96751.59;5012878;28;20032;-29
2022/01/07 04:52:38;;;;;;;1.60;1.20;;;;;;;25.46;31.42;96748.03;5013075;28;20037;-29
2022/01/07 04:55:04;;;;;;;2.92;1.23;;;;;;;25.45;31.42;96746.34;5026120;28;20025;-31
2022/01/07 04:57:30;;;;;;;1.13;1.00;;;;;;;25.43;31.55;96742.94;5014106;28;20492;-29
2022/01/07 04:59:55;;;;;;;1.30;1.10;;;;;;;25.44;31.53;96745.50;5010386;28;20041;-29
2022/01/07 05:02:20;;;;;;;1.20;1.00;;;;;;;25.44;31.54;96745.50;5012039;28;20107;-28
2022/01/07 05:04:46;;;;;;;1.65;1.15;;;;;;;25.44;31.39;96742.88;5011413;28;20617;-27
2022/01/07 05:07:12;;;;;;;2.58;1.00;;;;;;;25.45;31.36;96748.97;5013988;28;20022;-28
2022/01/07 05:09:37;;;;;;;1.10;0.95;;;;;;;25.44;31.42;96745.50;5011381;28;20579;-29
2022/01/07 05:12:03;;;;;;;2.03;0.90;;;;;;;25.43;31.44;96742.94;5012688;28;20099;-29
2022/01/07 05:14:28;;;;;;;1.50;1.00;;;;;;;25.43;31.41;96742.94;5013686;28;20140;-29
2022/01/07 05:16:54;;;;;;;1.48;0.90;;;;;;;25.41;31.43;96739.56;5009376;28;20025;-32
2022/01/07 05:19:19;;;;;;;2.33;1.23;;;;;;;25.42;31.62;96744.75;5013682;28;20037;-28
2022/01/07 05:21:45;;;;;;;0.85;0.70;;;;;;;25.43;31.53;96745.56;5012153;28;20445;-28
2022/01/07 05:24:10;;;;;;;1.05;0.63;;;;;;;25.43;31.42;96748.19;5009752;28;20029;-27
2022/01/07 05:26:35;;;;;;;1.52;1.15;;;;;;;25.43;31.51;96748.19;5009648;28;20037;-28
2022/01/07 05:29:01;;;;;;;1.58;0.80;;;;;;;25.42;31.44;96736.88;5008372;28;20036;-27
2022/01/07 05:31:27;;;;;;;0.82;0.80;;;;;;;25.42;31.49;96730.75;5006229;28;20511;-30
2022/01/07 05:33:53;;;;;;;0.70;0.70;;;;;;;25.42;31.46;96741.25;5004993;28;20720;-29
2022/01/07 05:36:18;;;;;;;1.13;0.80;;;;;;;25.42;31.62;96736.00;5010735;28;20029;-30
2022/01/07 05:38:44;;;;;;;1.13;0.82;;;;;;;25.41;31.44;96735.19;5007869;28;20119;-31
2022/01/07 05:41:09;;;;;;;1.10;0.77;;;;;;;25.42;31.63;96725.50;5009098;28;20038;-30
2022/01/07 05:43:34;;;;;;;2.10;0.90;;;;;;;25.40;31.45;96728.22;5010683;28;20025;-34
2022/01/07 05:46:00;;;;;;;0.70;0.70;;;;;;;25.41;31.43;96721.19;5010272;28;20087;-29
2022/01/07 05:48:25;;;;;;;1.17;0.90;;;;;;;25.41;31.41;96718.56;5009944;28;20026;-31
2022/01/07 05:50:51;;;;;;;1.17;0.70;;;;;;;25.41;31.40;96721.19;5009192;28;20080;-31
2022/01/07 05:53:16;;;;;;;0.82;0.70;;;;;;;25.41;31.55;96715.94;5005314;28;20045;-28
2022/01/07 05:55:41;;;;;;;1.75;0.80;;;;;;;25.41;31.59;96723.81;5011035;28;20511;-29
2022/01/07 05:58:07;;;;;;;1.42;0.80;;;;;;;25.41;31.45;96721.19;5003917;28;20036;-30
2022/01/07 06:00:32;;;;;;;1.02;0.80;;;;;;;25.42;31.57;96712.41;5009374;28;20033;-29
2022/01/07 06:02:57;;;;;;;1.10;0.80;;;;;;;25.42;31.59;96709.78;5009492;28;20077;-30
2022/01/07 06:05:23;;;;;;;2.20;0.70;;;;;;;25.42;31.40;96715.03;5010135;28;20030;-31
2022/01/07 06:07:48;;;;;;;1.02;0.80;;;;;;;25.43;31.56;96711.47;5013215;28;20037;-29
2022/01/07 06:10:14;;;;;;;0.77;0.70;;;;;;;25.41;31.55;96708.09;5008428;28;20037;-30
2022/01/07 06:12:39;;;;;;;0.80;0.70;;;;;;;25.41;31.35;96703.69;5007646;28;20032;-32
2022/01/07 06:15:06;;;;;;;0.77;0.50;;;;;;;25.43;31.45;96711.47;5008706;28;21453;-30
2022/01/07 06:17:31;;;;;;;0.95;0.60;;;;;;;25.42;31.52;96704.53;5007549;28;20029;-28
2022/01/07 06:19:57;;;;;;;1.90;1.00;;;;;;;25.43;31.35;96716.72;5009100;28;20033;-30
2022/01/07 06:22:22;;;;;;;1.05;0.60;;;;;;;25.43;31.34;96711.47;5006542;28;20036;-30
2022/01/07 06:24:47;;;;;;;0.68;0.65;;;;;;;25.44;31.57;96707.94;5011044;28;20040;-29
2022/01/07 06:27:13;;;;;;;0.82;0.45;;;;;;;25.44;31.39;96707.94;5009327;28;20037;-31
2022/01/07 06:29:38;;;;;;;0.80;0.60;;;;;;;25.44;31.44;96697.44;5006151;28;20022;-29
2022/01/07 06:32:05;;;;;;;1.27;0.93;;;;;;;25.44;31.46;96698.25;5009317;28;20399;-30
2022/01/07 06:34:30;;;;;;;0.95;0.60;;;;;;;25.45;31.51;96707.81;5002297;28;20036;-28
2022/01/07 06:36:58;;;;;;;0.82;0.70;;;;;;;25.47;31.46;96702.50;5006459;28;20634;-29
2022/01/07 06:39:23;;;;;;;0.60;0.60;;;;;;;25.46;31.31;96695.56;5007485;28;20029;-29
2022/01/07 06:41:50;;;;;;;1.58;0.90;;;;;;;25.46;31.39;96695.56;5012888;28;20106;-31
2022/01/07 06:44:16;;;;;;;1.00;0.70;;;;;;;25.48;31.53;96698.13;5009338;28;20743;-31
2022/01/07 06:46:41;;;;;;;0.93;0.70;;;;;;;25.45;31.39;96696.50;5006560;28;20022;-29
2022/01/07 06:49:06;;;;;;;1.33;0.80;;;;;;;25.48;31.47;96709.47;5006328;28;20037;-31
2022/01/07 06:51:32;;;;;;;1.33;0.73;;;;;;;25.48;31.44;96698.97;5003656;28;20076;-30
2022/01/07 06:53:58;;;;;;;1.42;0.77;;;;;;;25.49;31.55;96700.66;5008923;28;20033;-28
2022/01/07 06:56:24;;;;;;;0.82;0.50;;;;;;;25.48;31.50;96698.97;5004895;28;20072;-30
2022/01/07 06:58:49;;;;;;;1.58;0.70;;;;;;;25.49;31.38;96703.28;5010062;28;20030;-31
2022/01/07 07:01:14;;;;;;;0.98;0.77;;;;;;;25.50;31.46;96689.22;5007055;28;20028;-31
2022/01/07 07:03:40;;;;;;;1.00;0.70;;;;;;;25.50;31.51;96694.47;5005548;28;20101;-29
2022/01/07 07:06:06;;;;;;;0.98;0.60;;;;;;;25.51;31.43;96682.22;5009103;28;20025;-30
2022/01/07 07:08:31;;;;;;;0.88;0.77;;;;;;;25.50;31.49;96678.72;5011002;28;20022;-30
2022/01/07 07:10:57;;;;;;;2.92;0.60;;;;;;;25.51;31.32;96671.72;5007689;28;20122;-31
2022/01/07 07:13:22;;;;;;;0.70;0.70;;;;;;;25.52;31.50;96668.16;5004415;28;20022;-30
2022/01/07 07:15:48;;;;;;;0.85;0.70;;;;;;;25.50;31.44;96670.88;5006211;28;20030;-30
2022/01/07 07:18:14;;;;;;;1.05;0.90;;;;;;;25.50;31.44;96663.00;5002672;28;20504;-35
2022/01/07 07:20:39;;;;;;;1.08;0.80;;;;;;;25.52;31.48;96661.13;5008416;28;20442;-31
2022/01/07 07:23:05;;;;;;;9.32;1.60;;;;;;;25.52;31.33;96662.91;5007095;28;20032;-32
2022/01/07 07:25:30;;;;;;;1.52;0.88;;;;;;;25.50;31.31;96657.75;5007308;28;20030;-30
2022/01/07 07:27:56;;;;;;;2.95;0.98;;;;;;;25.50;31.43;96660.38;5005936;28;20040;-29
2022/01/07 07:30:21;;;;;;;3.80;0.98;;;;;;;25.50;31.39;96660.38;5007994;28;20022;-29
2022/01/07 07:32:48;;;;;;;5.53;1.80;;;;;;;25.50;31.35;96657.75;5009022;28;20079;-28
2022/01/07 07:37:45;;;;;;;12.93;3.03;;;;;;;25.50;31.45;96657.75;5004940;28;20179;-29
2022/01/07 07:40:11;;;;;;;14.38;2.95;;;;;;;25.50;31.38;96649.88;5000525;28;20026;-29
2022/01/07 07:42:37;;;;;;;11.30;3.17;;;;;;;25.51;31.52;96646.31;5002074;28;20032;-27
2022/01/07 07:45:02;;;;;;;9.85;3.10;;;;;;;25.51;31.52;96646.31;5002000;28;20030;-31
2022/01/07 07:47:28;;;;;;;8.80;2.95;;;;;;;25.52;31.60;96645.38;5001849;28;20030;-31
2022/01/07 07:49:53;;;;;;;8.50;2.70;;;;;;;25.52;31.41;96647.16;5002641;28;20026;-31
2022/01/07 07:52:19;;;;;;;15.30;2.67;;;;;;;25.52;31.55;96644.53;4991702;28;20041;-29
2022/01/07 07:54:44;;;;;;;7.25;2.90;;;;;;;25.52;31.61;96637.50;4999632;28;20029;-28
2022/01/07 07:57:09;;;;;;;7.53;3.25;;;;;;;25.53;31.42;96643.59;5002919;28;20025;-29
2022/01/07 07:59:35;;;;;;;12.23;2.63;;;;;;;25.52;31.47;96639.31;5002182;28;20368;-30
2022/01/07 08:02:01;;;;;;;7.00;2.33;;;;;;;25.55;31.52;96634.72;5001629;28;20048;-31
2022/01/07 08:04:27;;;;;;;9.65;2.42;;;;;;;25.56;31.59;96633.00;5001402;28;20025;-29
2022/01/07 08:06:52;;;;;;;6.43;2.25;;;;;;;25.56;31.72;96635.63;5001686;28;20169;-29
2022/01/07 08:09:18;;;;;;;5.95;2.35;;;;;;;25.57;31.72;96634.69;5000744;28;20038;-29
2022/01/07 08:11:52;;;;;;;9.55;2.53;;;;;;;25.57;31.84;96632.06;5009200;28;20570;-29
2022/01/07 08:17:03;;;;;;;5.10;2.40;;;;;;;25.59;31.72;96624.94;5014501;28;20063;-30
2022/01/07 08:19:28;;;;;;;5.68;2.55;;;;;;;25.59;31.72;96621.47;5001523;28;20088;-31
2022/01/07 08:21:53;;;;;;;4.03;1.90;;;;;;;25.60;31.82;96615.28;5002942;28;20033;-31
2022/01/07 08:24:19;;;;;;;4.97;2.30;;;;;;;25.61;31.96;96625.72;5003124;28;20468;-30
2022/01/07 08:26:45;;;;;;;4.97;2.22;;;;;;;25.61;31.82;96611.72;5002112;28;20041;-30
2022/01/07 08:29:12;;;;;;;6.80;2.42;;;;;;;25.61;31.77;96617.84;5002713;28;20022;-28
2022/01/07 08:36:50;;;;;;;6.68;2.20;;;;;;;25.64;31.96;96608.94;5003934;28;20129;-32
2022/01/07 08:39:15;;;;;;;5.05;2.13;;;;;;;25.64;31.81;96608.94;5002251;28;20033;-30
2022/01/07 08:41:42;;;;;;;6.90;2.72;;;;;;;25.65;31.92;96610.63;5005099;28;20038;-30
2022/01/07 08:44:07;;;;;;;6.65;2.60;;;;;;;25.63;31.90;96610.72;5002403;28;20025;-29
2022/01/07 08:46:33;;;;;;;6.03;2.47;;;;;;;25.65;31.90;96614.09;5000039;28;20030;-29
2022/01/07 08:48:58;;;;;;;6.28;2.40;;;;;;;25.66;31.89;96614.97;5001117;28;20030;-30
2022/01/07 08:51:24;;;;;;;7.15;2.25;;;;;;;25.65;31.95;96613.25;5003442;28;20065;-28
2022/01/07 08:53:49;;;;;;;5.88;2.40;;;;;;;25.66;31.87;96617.59;4999423;28;20029;-30
2022/01/07 08:56:16;;;;;;;6.45;2.20;;;;;;;25.66;31.85;96613.16;5000307;28;20562;-28
2022/01/07 08:58:42;;;;;;;5.38;2.42;;;;;;;25.67;31.88;96614.03;5002572;28;20035;-28
2022/01/07 09:01:08;;;;;;;6.32;1.98;;;;;;;25.66;31.91;96607.91;5001009;28;20025;-29
2022/01/07 09:03:33;;;;;;;4.18;1.73;;;;;;;25.67;32.02;96600.91;4999599;28;20032;-29
2022/01/07 09:05:58;;;;;;;4.47;2.22;;;;;;;25.67;32.09;96608.78;5004235;28;20542;-29
2022/01/07 09:08:24;;;;;;;4.30;1.77;;;;;;;25.67;32.11;96611.41;5012376;28;20030;-29
2022/01/07 09:10:49;;;;;;;5.57;2.20;;;;;;;25.68;32.05;96606.06;5005594;28;20028;-30
2022/01/07 09:13:15;;;;;;;6.53;2.17;;;;;;;25.69;32.00;96607.75;5003147;28;20042;-30
2022/01/07 09:15:40;;;;;;;7.22;1.80;;;;;;;25.70;32.08;96603.34;5006224;28;20083;-28
2022/01/07 09:18:10;;;;;;;5.13;2.38;;;;;;;25.70;32.16;96601.56;5003813;28;20041;-30
2022/01/07 09:20:39;;;;;;;4.88;1.85;;;;;;;25.72;32.15;96606.75;5004796;28;20075;-30
2022/01/07 09:23:04;;;;;;;4.97;1.70;;;;;;;25.71;32.18;96605.06;5002264;28;20038;-29
2022/01/07 09:25:30;;;;;;;3.72;1.88;;;;;;;25.73;32.07;96604.97;5005579;28;20534;-28
2022/01/07 09:27:55;;;;;;;4.03;1.80;;;;;;;25.74;32.05;96602.25;5003427;28;20037;-28
2022/01/07 09:30:21;;;;;;;6.40;2.10;;;;;;;25.74;32.20;96599.63;5003022;28;20064;-31
2022/01/07 09:32:46;;;;;;;3.00;1.75;;;;;;;25.75;32.01;96595.22;5004031;28;20034;-30
2022/01/07 09:35:12;;;;;;;4.07;1.77;;;;;;;25.75;32.13;96601.34;5000304;28;20494;-29
2022/01/07 09:37:37;;;;;;;3.75;1.63;;;;;;;25.75;32.21;96590.84;4998988;28;20037;-29
2022/01/07 09:40:03;;;;;;;5.53;1.83;;;;;;;25.76;31.60;96591.66;4999599;28;20069;-30
2022/01/07 09:42:29;;;;;;;10.30;2.08;;;;;;;25.75;31.57;96590.84;5002467;28;20543;-28
2022/01/07 09:44:55;;;;;;;11.60;2.20;;;;;;;25.75;31.58;96585.59;5006184;28;20033;-30
2022/01/07 09:47:21;;;;;;;11.82;5.38;;;;;;;25.69;27.68;96593.78;5004733;28;20057;-30
2022/01/07 09:49:46;;;;;;;7.50;5.00;;;;;;;25.46;21.61;96580.13;5003959;28;20049;-28
2022/01/07 09:52:12;;;;;;;7.03;4.20;;;;;;;25.22;24.09;96587.56;5003538;28;20104;-29
2022/01/07 09:54:38;;;;;;;7.70;3.00;;;;;;;25.03;25.38;96583.31;4999080;28;20151;-29
2022/01/07 09:57:04;;;;;;;5.82;3.20;;;;;;;24.93;26.08;96572.47;5000418;28;21991;-29
2022/01/07 09:59:30;;;;;;;5.53;2.50;;;;;;;24.86;26.54;96574.56;4998582;28;20120;-28
2022/01/07 10:02:00;;;;;;;7.03;2.90;;;;;;;24.83;27.13;96572.09;5000982;28;20531;-29
2022/01/07 10:04:33;;;;;;;8.98;3.15;;;;;;;24.84;27.39;96567.72;4997204;28;20025;-28
2022/01/07 10:07:21;;;;;;;4.07;2.42;;;;;;;24.85;27.83;96566.78;4997053;28;20021;-30
2022/01/07 10:10:07;;;;;;;6.18;2.80;;;;;;;24.87;27.85;96562.31;4998401;28;20116;-28
2022/01/07 10:12:33;;;;;;;4.35;2.45;;;;;;;24.88;28.06;96559.63;5010386;28;20162;-29
2022/01/07 10:15:12;;;;;;;5.35;2.30;;;;;;;24.92;28.28;96552.44;5000118;28;20040;-28
2022/01/07 10:17:37;;;;;;;13.43;2.92;;;;;;;24.94;28.28;96547.94;5024651;28;20404;-29
2022/01/07 10:20:03;;;;;;;6.05;2.50;;;;;;;24.96;28.50;96551.34;4999696;28;20076;-28
2022/01/07 10:22:29;;;;;;;10.23;2.50;;;;;;;24.99;28.63;96545.09;5018267;28;20036;-29
2022/01/07 10:24:58;;;;;;;11.02;2.00;;;;;;;25.01;28.54;96546.69;5009059;28;20042;-29
2022/01/07 10:27:33;;;;;;;9.63;2.40;;;;;;;25.05;28.88;96540.34;5008320;28;20117;-28
2022/01/07 10:29:58;;;;;;;5.45;2.13;;;;;;;25.08;28.76;96539.34;5005148;28;20050;-30
2022/01/07 10:32:24;;;;;;;12.00;2.40;;;;;;;25.11;28.86;96539.19;5004026;28;20037;-28
2022/01/07 10:35:13;;;;;;;12.27;3.40;;;;;;;25.15;28.85;96537.22;5005097;28;20812;-29
2022/01/07 10:37:54;;;;;;;10.38;3.30;;;;;;;25.17;28.95;96532.75;4999948;28;20021;-28
2022/01/07 10:40:20;;;;;;;13.15;3.92;;;;;;;25.20;29.13;96532.56;5023578;28;20561;-31
2022/01/07 10:42:46;;;;;;;15.57;3.38;;;;;;;25.23;29.21;96536.81;5007519;28;20145;-29
2022/01/07 10:45:11;;;;;;;12.32;3.80;;;;;;;25.24;29.17;96536.72;5010644;28;20025;-29
2022/01/07 10:47:36;;;;;;;13.90;3.70;;;;;;;25.27;29.20;96533.94;5008049;28;20115;-34
2022/01/07 10:50:24;;;;;;;8.70;3.35;;;;;;;25.29;29.39;96534.69;5010909;28;20053;-31
2022/01/07 10:52:50;;;;;;;14.10;3.40;;;;;;;25.33;29.47;96530.13;5011042;28;20032;-30
2022/01/07 10:55:18;;;;;;;9.80;3.10;;;;;;;25.35;29.45;96522.19;5006746;28;20025;-29
2022/01/07 10:57:47;;;;;;;9.23;3.10;;;;;;;25.37;29.44;96525.56;5008426;28;20025;-29
2022/01/07 11:00:14;;;;;;;9.50;3.08;;;;;;;25.39;29.43;96511.44;5009680;28;20030;-30
2022/01/07 11:02:40;;;;;;;10.20;3.10;;;;;;;25.40;29.37;96507.03;5008125;28;20827;-31
2022/01/07 11:05:06;;;;;;;8.45;3.00;;;;;;;25.42;29.49;96510.41;5005147;28;20032;-32
2022/01/07 11:07:31;;;;;;;11.38;3.47;;;;;;;25.44;29.46;96508.56;4992916;28;20042;-28
2022/01/07 11:09:57;;;;;;;10.25;3.10;;;;;;;25.46;29.29;96501.44;5006939;28;20377;-29
2022/01/07 11:12:22;;;;;;;7.03;2.53;;;;;;;25.47;29.60;96508.38;5008078;28;20056;-30
2022/01/07 11:14:48;;;;;;;9.20;2.70;;;;;;;25.48;29.53;96502.22;4999067;28;20110;-29
2022/01/07 11:17:20;;;;;;;10.48;3.25;;;;;;;25.50;29.57;96495.06;4997462;28;20041;-31
2022/01/07 11:20:03;;;;;;;7.85;2.90;;;;;;;25.51;29.60;96499.38;4995802;28;20503;-32
2022/01/07 11:22:28;;;;;;;7.63;2.83;;;;;;;25.52;29.75;96495.81;4985106;28;20033;-29
2022/01/07 11:24:56;;;;;;;11.23;2.80;;;;;;;25.53;29.73;96497.53;5024677;28;20029;-27
2022/01/07 11:27:25;;;;;;;8.48;2.65;;;;;;;25.55;29.81;96498.28;5007832;28;21059;-28
2022/01/07 11:30:04;;;;;;;7.63;2.97;;;;;;;25.55;29.80;96490.41;5007781;28;20101;-29
2022/01/07 11:32:33;;;;;;;9.75;3.28;;;;;;;25.58;29.86;96492.03;5009088;28;20136;-28
2022/01/07 11:35:16;;;;;;;7.25;3.10;;;;;;;25.57;29.93;96480.72;5003113;28;20026;-29
2022/01/07 11:37:43;;;;;;;5.95;2.53;;;;;;;25.59;29.85;96482.41;5007510;28;20057;-28